DK-0034 weather

Slagelse Private Airstrip
Zealand, Denmark

Public forecast

Using degrees Celsius for public forecast. Weather courtesy of forecast.io.

METAR (pilot weather report)

Report is more than 6 hours old.

Closest report is Avnø Air Base, 23.2 nm (43.0 km) SE. Retrieved 2016/10/04 04:20 UTC (3 years ago):

EKAV 040420Z AUTO ///// 9999NDV NCD ///// Q1039

TAF (pilot weather forecast)

Closest forecast is Copenhagen Kastrup Airport, 48.3 nm (89.5 km) ENE. Retrieved 2019/07/18 06:31 UTC (4 hours ago):

TAF EKCH 180509Z 1806/1906 VRB02KT 9999 SCT040 BECMG 1809/1811 19010KT